createdAt,value
2017-09-27T00:22:55.286Z,95420.09
2017-09-27T00:25:22.458Z,95416.69
2017-09-27T00:27:49.680Z,95421.42
2017-09-27T00:32:50.327Z,95432.19
2017-09-27T00:35:17.568Z,95425.77
2017-09-27T00:37:44.821Z,95427.65
2017-09-27T00:40:11.986Z,95435.59
2017-09-27T00:42:39.149Z,95433.89
2017-09-27T00:45:06.370Z,95434.09
2017-09-27T00:47:33.610Z,95442.20
2017-09-27T00:50:00.793Z,95433.53
2017-09-27T00:52:28.008Z,95435.41
2017-09-27T00:54:55.157Z,95437.29
2017-09-27T00:57:23.074Z,95440.32
2017-09-27T00:59:50.219Z,95434.84
2017-09-27T01:02:17.469Z,95438.82
2017-09-27T01:04:44.651Z,95436.94
2017-09-27T01:07:11.810Z,95433.92
2017-09-27T01:09:38.999Z,95433.92
2017-09-27T01:12:06.233Z,95433.00
2017-09-27T01:14:33.510Z,95430.72
2017-09-27T01:17:00.673Z,95435.63
2017-09-27T01:19:27.858Z,95434.50
2017-09-27T01:21:55.142Z,95438.62
2017-09-27T01:24:22.343Z,95431.43
2017-09-27T01:26:51.032Z,95431.98
2017-09-27T01:29:18.232Z,95432.19
2017-09-27T01:31:45.439Z,95440.69
2017-09-27T01:34:12.635Z,95433.88
2017-09-27T01:36:39.834Z,95433.70
2017-09-27T01:39:07.195Z,95437.67
2017-09-27T01:41:34.362Z,95444.09
2017-09-27T01:44:02.206Z,95444.86
2017-09-27T01:46:29.417Z,95439.00
2017-09-27T01:48:56.614Z,95440.12
2017-09-27T01:51:25.682Z,95438.80
2017-09-27T01:53:52.874Z,95443.16
2017-09-27T01:56:33.368Z,95445.41
2017-09-27T01:59:00.575Z,95447.69
2017-09-27T02:01:27.790Z,95446.36
2017-09-27T02:03:55.126Z,95448.44
2017-09-27T02:06:22.321Z,95448.61
2017-09-27T02:08:49.536Z,95452.97
2017-09-27T02:11:16.775Z,95448.05
2017-09-27T02:13:43.939Z,95453.16
2017-09-27T02:16:11.253Z,95448.05
2017-09-27T02:18:38.422Z,95453.91
2017-09-27T02:21:05.662Z,95448.06
2017-09-27T02:23:32.911Z,95456.55
2017-09-27T02:26:00.107Z,95458.27
2017-09-27T02:28:28.781Z,95456.92
2017-09-27T02:30:55.936Z,95457.30
2017-09-27T02:33:23.166Z,95459.00
2017-09-27T02:35:50.419Z,95464.48
2017-09-27T02:38:17.743Z,95458.99
2017-09-27T02:40:44.947Z,95466.56
2017-09-27T02:43:12.147Z,95467.48
2017-09-27T02:45:39.406Z,95471.47
2017-09-27T02:48:06.597Z,95472.03
2017-09-27T02:50:33.843Z,95472.95
2017-09-27T02:53:01.030Z,95474.68
2017-09-27T02:55:28.219Z,95471.83
2017-09-27T02:57:55.618Z,95471.28
2017-09-27T03:00:22.804Z,95472.22
2017-09-27T03:02:50.022Z,95473.72
2017-09-27T03:05:17.225Z,95479.76
2017-09-27T03:07:44.385Z,95481.07
2017-09-27T03:10:11.599Z,95487.50
2017-09-27T03:12:38.932Z,95486.55
2017-09-27T03:15:06.140Z,95487.50
2017-09-27T03:17:33.340Z,95488.45
2017-09-27T03:20:00.554Z,95492.22
2017-09-27T03:22:27.763Z,95486.38
2017-09-27T03:24:54.961Z,95495.80
2017-09-27T03:27:22.164Z,95495.62
2017-09-27T03:29:49.365Z,95495.24
2017-09-27T03:32:16.643Z,95497.70
2017-09-27T03:34:43.860Z,95500.34
2017-09-27T03:37:11.106Z,95503.95
2017-09-27T03:39:38.305Z,95507.33
2017-09-27T03:42:05.512Z,95506.00
2017-09-27T03:44:32.800Z,95511.86
2017-09-27T03:47:02.994Z,95516.02
2017-09-27T03:49:30.185Z,95515.09
2017-09-27T03:51:57.414Z,95518.65
2017-09-27T03:54:24.649Z,95522.09
2017-09-27T03:56:51.857Z,95523.21
2017-09-27T03:59:19.093Z,95530.98
2017-09-27T04:01:46.344Z,95533.61
2017-09-27T04:04:13.654Z,95538.92
2017-09-27T04:06:40.839Z,95541.38
2017-09-27T04:09:08.024Z,95538.76
2017-09-27T04:11:35.263Z,95544.06
2017-09-27T04:14:02.499Z,95548.05
2017-09-27T04:16:29.691Z,95547.45
2017-09-27T04:18:56.945Z,95554.66
2017-09-27T04:21:24.147Z,95554.30
2017-09-27T04:23:51.394Z,95558.66
2017-09-27T04:26:18.658Z,95561.69
2017-09-27T04:28:45.864Z,95564.15
2017-09-27T04:31:13.056Z,95567.36
2017-09-27T04:33:42.359Z,95561.70
2017-09-27T04:36:09.630Z,95574.38
2017-09-27T04:38:36.846Z,95574.73
2017-09-27T04:41:04.111Z,95577.00
2017-09-27T04:43:31.316Z,95574.57
2017-09-27T04:45:58.590Z,95580.25
2017-09-27T04:48:25.772Z,95585.53
2017-09-27T04:50:52.999Z,95585.16
2017-09-27T04:53:20.250Z,95577.80
2017-09-27T04:55:47.501Z,95574.02
2017-09-27T04:58:14.751Z,95574.97
2017-09-27T05:00:41.934Z,95579.68
2017-09-27T05:03:09.140Z,95574.59
2017-09-27T05:05:36.350Z,95576.28
2017-09-27T05:08:03.554Z,95582.13
2017-09-27T05:10:38.421Z,95584.78
2017-09-27T05:13:05.635Z,95582.70
2017-09-27T05:15:32.870Z,95579.11
2017-09-27T06:23:10.125Z,95643.69
2017-09-27T06:31:21.129Z,95655.58
2017-09-27T06:33:48.471Z,95659.35
2017-09-27T06:36:22.652Z,95660.87
2017-09-27T06:38:49.859Z,95663.55
2017-09-27T06:41:17.160Z,95667.52
2017-09-27T06:43:49.079Z,95675.68
2017-09-27T06:46:16.781Z,95682.88
2017-09-27T06:51:48.425Z,95691.21
2017-09-27T06:54:16.234Z,95688.35
2017-09-27T06:56:43.746Z,95688.53
2017-09-27T06:59:11.512Z,95696.87
2017-09-27T07:01:40.896Z,95701.25
2017-09-27T07:04:09.164Z,95705.41
2017-09-27T07:06:36.648Z,95706.19
2017-09-27T07:09:04.721Z,95705.21
2017-09-27T07:11:34.316Z,95705.44
2017-09-27T07:14:02.246Z,95713.97
2017-09-27T07:16:31.223Z,95712.20
2017-09-27T07:18:59.734Z,95715.65
2017-09-27T07:27:33.731Z,95723.64
2017-09-27T07:30:03.084Z,95727.25
2017-09-27T07:45:37.437Z,95735.52
2017-09-27T07:48:09.018Z,95737.81
2017-09-27T07:50:36.629Z,95745.19
2017-09-27T07:53:03.861Z,95747.84
2017-09-27T07:55:34.809Z,95744.25
2017-09-27T08:26:22.123Z,95760.97
2017-09-27T09:51:39.201Z,95791.90
2017-09-27T09:59:19.481Z,95792.09
2017-09-27T10:01:49.495Z,95791.91
2017-09-27T10:04:18.128Z,95789.06
2017-09-27T10:41:16.951Z,95793.81
2017-09-27T10:43:48.364Z,95783.38
2017-09-27T10:46:20.054Z,95787.56
2017-09-27T11:10:05.910Z,95789.45
2017-09-27T11:42:47.976Z,95803.31
2017-09-27T12:38:22.378Z,95807.67
2017-09-27T14:12:30.192Z,95818.11
2017-09-27T14:26:06.539Z,95813.58
2017-09-27T14:28:43.690Z,95812.42
2017-09-27T14:54:49.519Z,95825.33
2017-09-27T15:03:03.007Z,95829.14
2017-09-27T15:32:48.809Z,95846.70
2017-09-27T16:04:41.458Z,95869.39
